createdAt,value
2023-02-19T22:02:43.220Z,101797.81
2023-02-19T22:05:10.027Z,101800.59
2023-02-19T22:07:36.579Z,101793.53
2023-02-19T22:10:04.147Z,101804.41
2023-02-19T22:12:31.940Z,101796.50
2023-02-19T22:14:58.473Z,101794.88
2023-02-19T22:17:25.051Z,101798.53
2023-02-19T22:19:51.606Z,101793.16
2023-02-19T22:22:21.739Z,101781.47
2023-02-19T22:24:48.509Z,101777.88
2023-02-19T22:27:15.012Z,101768.06
2023-02-19T22:29:45.654Z,101771.59
2023-02-19T22:32:12.330Z,101764.53
2023-02-19T22:34:40.428Z,101766.28
2023-02-19T22:37:07.046Z,101760.91
2023-02-19T22:39:33.663Z,101760.06
2023-02-19T22:42:00.440Z,101755.72
2023-02-19T22:44:27.057Z,101762.00
2023-02-19T22:46:55.887Z,101752.88
2023-02-19T22:49:23.605Z,101759.22
2023-02-19T22:52:06.014Z,101749.38
2023-02-19T22:54:32.606Z,101757.53
2023-02-19T22:56:59.155Z,101748.78
2023-02-19T22:59:26.880Z,101740.72
2023-02-19T23:01:53.689Z,101738.06
2023-02-19T23:04:22.628Z,101741.66
2023-02-19T23:06:52.172Z,101730.06
2023-02-19T23:09:28.710Z,101725.78
2023-02-19T23:12:03.738Z,101727.59
2023-02-19T23:14:30.332Z,101747.50
2023-02-19T23:16:56.956Z,101751.03
2023-02-19T23:19:23.914Z,101750.13
2023-02-19T23:21:50.928Z,101751.03
2023-02-19T23:24:17.741Z,101747.59
2023-02-19T23:26:49.573Z,101737.81
2023-02-19T23:29:25.625Z,101736.94
2023-02-19T23:31:53.034Z,101735.19
2023-02-19T23:34:20.396Z,101726.34
2023-02-19T23:36:49.314Z,101724.81
2023-02-19T23:39:21.737Z,101736.44
2023-02-19T23:41:50.976Z,101735.53
2023-02-19T23:44:18.135Z,101739.16
2023-02-19T23:46:44.877Z,101729.34
2023-02-19T23:49:11.585Z,101723.25
2023-02-19T23:51:38.127Z,101721.47
2023-02-19T23:54:05.298Z,101730.66
2023-02-19T23:56:32.524Z,101730.66
2023-02-19T23:58:59.258Z,101722.56
